Terminal Aerodrome Forecast
Issued by NWS

Current Version | Previous Version | Text Only | Print | Product List | Glossary On
Versions: 1 2 3 4 5 6 7 8 9 10 11 12
972
FTUS46 KMTR 281734
TAFSJC
TAF
KSJC 281734Z 2818/2918 33003KT P6SM SKC
     FM281900 31010KT P6SM SKC
     FM290400 29005KT P6SM SKC
     FM291400 12004KT 5SM BR OVC010=

USA.gov is the U.S. government's official web portal to all federal, state and local government web resources and services.